sensor_id;sensor_type;location;lat;lon;timestamp;P1;durP1;ratioP1;P2;durP2;ratioP2
1747;SDS011;871;47.034;15.394;2024-02-16T00:01:00;40.15;;;1.30;;
1747;SDS011;871;47.034;15.394;2024-02-16T00:03:26;40.10;;;1.30;;
1747;SDS011;871;47.034;15.394;2024-02-16T00:05:53;39.97;;;1.40;;
1747;SDS011;871;47.034;15.394;2024-02-16T00:08:20;40.30;;;1.50;;
1747;SDS011;871;47.034;15.394;2024-02-16T00:10:46;40.40;;;1.50;;
1747;SDS011;871;47.034;15.394;2024-02-16T00:13:12;40.15;;;1.38;;
1747;SDS011;871;47.034;15.394;2024-02-16T00:15:39;40.35;;;1.50;;
1747;SDS011;871;47.034;15.394;2024-02-16T00:18:05;40.75;;;1.40;;
1747;SDS011;871;47.034;15.394;2024-02-16T00:20:31;40.72;;;1.40;;
1747;SDS011;871;47.034;15.394;2024-02-16T00:22:58;41.25;;;2.75;;
1747;SDS011;871;47.034;15.394;2024-02-16T00:25:25;40.65;;;1.40;;
1747;SDS011;871;47.034;15.394;2024-02-16T00:27:51;40.42;;;1.30;;
1747;SDS011;871;47.034;15.394;2024-02-16T00:30:19;40.33;;;1.30;;
1747;SDS011;871;47.034;15.394;2024-02-16T00:32:46;40.40;;;1.33;;
1747;SDS011;871;47.034;15.394;2024-02-16T00:35:12;40.70;;;1.40;;
1747;SDS011;871;47.034;15.394;2024-02-16T00:37:39;40.60;;;1.20;;
1747;SDS011;871;47.034;15.394;2024-02-16T00:40:05;40.60;;;1.40;;
1747;SDS011;871;47.034;15.394;2024-02-16T00:42:31;40.33;;;1.30;;
1747;SDS011;871;47.034;15.394;2024-02-16T00:44:57;40.85;;;1.67;;
1747;SDS011;871;47.034;15.394;2024-02-16T00:47:26;40.38;;;1.30;;
1747;SDS011;871;47.034;15.394;2024-02-16T00:49:53;40.72;;;2.00;;
1747;SDS011;871;47.034;15.394;2024-02-16T00:52:19;39.97;;;1.30;;
1747;SDS011;871;47.034;15.394;2024-02-16T00:54:45;40.28;;;1.20;;
1747;SDS011;871;47.034;15.394;2024-02-16T00:57:11;40.45;;;1.20;;
1747;SDS011;871;47.034;15.394;2024-02-16T00:59:39;40.50;;;1.50;;
1747;SDS011;871;47.034;15.394;2024-02-16T01:02:05;40.38;;;1.45;;
1747;SDS011;871;47.034;15.394;2024-02-16T01:04:32;40.50;;;1.50;;
1747;SDS011;871;47.034;15.394;2024-02-16T01:06:58;40.30;;;1.40;;
1747;SDS011;871;47.034;15.394;2024-02-16T01:09:24;40.35;;;1.48;;
1747;SDS011;871;47.034;15.394;2024-02-16T01:11:52;40.40;;;1.30;;
1747;SDS011;871;47.034;15.394;2024-02-16T01:14:18;40.40;;;1.35;;
1747;SDS011;871;47.034;15.394;2024-02-16T01:16:45;40.35;;;1.30;;
1747;SDS011;871;47.034;15.394;2024-02-16T01:19:11;40.28;;;1.33;;
1747;SDS011;871;47.034;15.394;2024-02-16T01:21:38;40.28;;;1.50;;
1747;SDS011;871;47.034;15.394;2024-02-16T01:24:04;40.42;;;1.50;;
1747;SDS011;871;47.034;15.394;2024-02-16T01:26:31;40.20;;;1.30;;
1747;SDS011;871;47.034;15.394;2024-02-16T01:28:57;39.95;;;1.50;;
1747;SDS011;871;47.034;15.394;2024-02-16T01:31:23;40.15;;;1.42;;
1747;SDS011;871;47.034;15.394;2024-02-16T01:33:49;39.95;;;1.35;;
1747;SDS011;871;47.034;15.394;2024-02-16T01:36:18;40.25;;;1.38;;
1747;SDS011;871;47.034;15.394;2024-02-16T01:38:44;40.13;;;1.40;;
1747;SDS011;871;47.034;15.394;2024-02-16T01:41:10;40.65;;;2.50;;
1747;SDS011;871;47.034;15.394;2024-02-16T01:43:37;40.03;;;1.40;;
1747;SDS011;871;47.034;15.394;2024-02-16T01:46:03;39.88;;;1.20;;
1747;SDS011;871;47.034;15.394;2024-02-16T01:48:30;40.17;;;1.60;;
1747;SDS011;871;47.034;15.394;2024-02-16T01:50:56;39.90;;;1.45;;
1747;SDS011;871;47.034;15.394;2024-02-16T01:53:23;39.97;;;1.40;;
1747;SDS011;871;47.034;15.394;2024-02-16T01:55:49;39.97;;;1.30;;
1747;SDS011;871;47.034;15.394;2024-02-16T01:58:15;40.33;;;1.40;;
1747;SDS011;871;47.034;15.394;2024-02-16T02:00:43;40.35;;;1.50;;
1747;SDS011;871;47.034;15.394;2024-02-16T02:03:09;40.30;;;1.30;;
1747;SDS011;871;47.034;15.394;2024-02-16T02:05:43;40.40;;;1.40;;
1747;SDS011;871;47.034;15.394;2024-02-16T02:08:10;40.40;;;1.25;;
1747;SDS011;871;47.034;15.394;2024-02-16T02:10:36;40.53;;;1.30;;
1747;SDS011;871;47.034;15.394;2024-02-16T02:13:03;40.42;;;1.70;;
1747;SDS011;871;47.034;15.394;2024-02-16T02:15:29;40.53;;;1.70;;
1747;SDS011;871;47.034;15.394;2024-02-16T02:17:55;40.53;;;1.67;;
1747;SDS011;871;47.034;15.394;2024-02-16T02:20:26;40.45;;;1.48;;
1747;SDS011;871;47.034;15.394;2024-02-16T02:22:52;40.20;;;1.38;;
1747;SDS011;871;47.034;15.394;2024-02-16T02:25:18;40.25;;;1.30;;
1747;SDS011;871;47.034;15.394;2024-02-16T02:27:45;40.35;;;1.30;;
1747;SDS011;871;47.034;15.394;2024-02-16T02:30:11;40.20;;;1.30;;
1747;SDS011;871;47.034;15.394;2024-02-16T02:32:37;40.17;;;1.35;;
1747;SDS011;871;47.034;15.394;2024-02-16T02:35:05;40.35;;;1.70;;
1747;SDS011;871;47.034;15.394;2024-02-16T02:37:33;40.30;;;1.40;;
1747;SDS011;871;47.034;15.394;2024-02-16T02:39:59;40.25;;;1.50;;
1747;SDS011;871;47.034;15.394;2024-02-16T02:42:25;40.03;;;1.30;;
1747;SDS011;871;47.034;15.394;2024-02-16T02:44:53;39.80;;;1.30;;
1747;SDS011;871;47.034;15.394;2024-02-16T02:47:19;39.90;;;1.60;;
1747;SDS011;871;47.034;15.394;2024-02-16T02:49:45;39.72;;;1.40;;
1747;SDS011;871;47.034;15.394;2024-02-16T02:52:11;39.85;;;1.75;;
1747;SDS011;871;47.034;15.394;2024-02-16T02:54:37;39.70;;;1.30;;
1747;SDS011;871;47.034;15.394;2024-02-16T02:57:04;39.35;;;1.30;;
1747;SDS011;871;47.034;15.394;2024-02-16T02:59:30;40.08;;;1.83;;
1747;SDS011;871;47.034;15.394;2024-02-16T03:01:56;40.03;;;1.30;;
1747;SDS011;871;47.034;15.394;2024-02-16T03:04:22;39.70;;;1.30;;
1747;SDS011;871;47.034;15.394;2024-02-16T03:06:51;39.90;;;1.40;;
1747;SDS011;871;47.034;15.394;2024-02-16T03:09:17;41.25;;;1.95;;
1747;SDS011;871;47.034;15.394;2024-02-16T03:11:43;39.95;;;1.40;;
1747;SDS011;871;47.034;15.394;2024-02-16T03:14:09;40.38;;;1.92;;
1747;SDS011;871;47.034;15.394;2024-02-16T03:16:36;40.33;;;1.30;;
1747;SDS011;871;47.034;15.394;2024-02-16T03:19:03;40.50;;;1.40;;
1747;SDS011;871;47.034;15.394;2024-02-16T03:21:30;40.05;;;1.42;;
1747;SDS011;871;47.034;15.394;2024-02-16T03:23:57;40.33;;;1.40;;
1747;SDS011;871;47.034;15.394;2024-02-16T03:26:24;40.30;;;1.60;;
1747;SDS011;871;47.034;15.394;2024-02-16T03:28:50;40.22;;;1.25;;
1747;SDS011;871;47.034;15.394;2024-02-16T03:31:16;40.22;;;1.30;;
1747;SDS011;871;47.034;15.394;2024-02-16T03:33:42;39.92;;;1.50;;
1747;SDS011;871;47.034;15.394;2024-02-16T03:36:09;40.00;;;1.27;;
1747;SDS011;871;47.034;15.394;2024-02-16T03:38:36;40.20;;;1.30;;
1747;SDS011;871;47.034;15.394;2024-02-16T03:41:03;39.95;;;1.35;;
1747;SDS011;871;47.034;15.394;2024-02-16T03:43:29;40.92;;;1.83;;
1747;SDS011;871;47.034;15.394;2024-02-16T03:45:55;40.03;;;1.30;;
1747;SDS011;871;47.034;15.394;2024-02-16T03:48:21;40.17;;;1.50;;
1747;SDS011;871;47.034;15.394;2024-02-16T03:50:47;39.90;;;1.30;;
1747;SDS011;871;47.034;15.394;2024-02-16T03:53:13;40.05;;;1.40;;
1747;SDS011;871;47.034;15.394;2024-02-16T03:55:39;39.75;;;1.30;;
1747;SDS011;871;47.034;15.394;2024-02-16T03:58:06;39.85;;;1.45;;
1747;SDS011;871;47.034;15.394;2024-02-16T04:00:32;39.92;;;1.30;;
1747;SDS011;871;47.034;15.394;2024-02-16T04:02:59;39.92;;;1.40;;
1747;SDS011;871;47.034;15.394;2024-02-16T04:05:25;39.80;;;1.20;;
1747;SDS011;871;47.034;15.394;2024-02-16T04:07:56;39.92;;;1.40;;
1747;SDS011;871;47.034;15.394;2024-02-16T04:10:26;39.85;;;1.40;;
1747;SDS011;871;47.034;15.394;2024-02-16T04:12:53;40.10;;;1.40;;
1747;SDS011;871;47.034;15.394;2024-02-16T04:15:19;39.95;;;1.50;;
1747;SDS011;871;47.034;15.394;2024-02-16T04:17:45;40.20;;;1.50;;
1747;SDS011;871;47.034;15.394;2024-02-16T04:20:11;40.17;;;1.45;;
1747;SDS011;871;47.034;15.394;2024-02-16T04:22:37;40.15;;;1.50;;
1747;SDS011;871;47.034;15.394;2024-02-16T04:25:04;39.90;;;1.40;;
1747;SDS011;871;47.034;15.394;2024-02-16T04:27:30;39.85;;;1.25;;
1747;SDS011;871;47.034;15.394;2024-02-16T04:29:56;39.65;;;1.60;;
1747;SDS011;871;47.034;15.394;2024-02-16T04:32:22;39.75;;;1.30;;
1747;SDS011;871;47.034;15.394;2024-02-16T04:34:50;39.92;;;1.38;;
1747;SDS011;871;47.034;15.394;2024-02-16T04:37:27;40.00;;;1.50;;
1747;SDS011;871;47.034;15.394;2024-02-16T04:39:53;39.95;;;1.25;;
1747;SDS011;871;47.034;15.394;2024-02-16T04:42:19;39.85;;;1.30;;
1747;SDS011;871;47.034;15.394;2024-02-16T04:44:48;39.67;;;1.30;;
1747;SDS011;871;47.034;15.394;2024-02-16T04:47:14;39.92;;;1.40;;
1747;SDS011;871;47.034;15.394;2024-02-16T04:49:40;39.92;;;1.50;;
1747;SDS011;871;47.034;15.394;2024-02-16T04:52:07;39.70;;;1.30;;
1747;SDS011;871;47.034;15.394;2024-02-16T04:54:33;39.80;;;1.40;;
1747;SDS011;871;47.034;15.394;2024-02-16T04:56:59;39.63;;;1.40;;
1747;SDS011;871;47.034;15.394;2024-02-16T04:59:25;40.25;;;1.85;;
1747;SDS011;871;47.034;15.394;2024-02-16T05:01:52;40.10;;;1.40;;
1747;SDS011;871;47.034;15.394;2024-02-16T05:04:20;40.05;;;1.50;;
1747;SDS011;871;47.034;15.394;2024-02-16T05:06:46;39.88;;;1.50;;
1747;SDS011;871;47.034;15.394;2024-02-16T05:09:14;40.22;;;1.40;;
1747;SDS011;871;47.034;15.394;2024-02-16T05:11:42;40.22;;;2.05;;
1747;SDS011;871;47.034;15.394;2024-02-16T05:14:09;39.80;;;1.38;;
1747;SDS011;871;47.034;15.394;2024-02-16T05:16:43;39.50;;;1.30;;
1747;SDS011;871;47.034;15.394;2024-02-16T05:19:09;39.95;;;1.40;;
1747;SDS011;871;47.034;15.394;2024-02-16T05:21:35;40.03;;;1.35;;
1747;SDS011;871;47.034;15.394;2024-02-16T05:24:01;40.20;;;1.38;;
1747;SDS011;871;47.034;15.394;2024-02-16T05:26:27;39.70;;;1.27;;
1747;SDS011;871;47.034;15.394;2024-02-16T05:28:54;39.72;;;1.40;;
1747;SDS011;871;47.034;15.394;2024-02-16T05:31:21;39.92;;;1.40;;
1747;SDS011;871;47.034;15.394;2024-02-16T05:33:47;39.78;;;1.45;;
1747;SDS011;871;47.034;15.394;2024-02-16T05:36:21;39.75;;;1.45;;
1747;SDS011;871;47.034;15.394;2024-02-16T05:38:50;40.03;;;1.40;;
1747;SDS011;871;47.034;15.394;2024-02-16T05:41:16;39.65;;;1.40;;
1747;SDS011;871;47.034;15.394;2024-02-16T05:43:43;40.00;;;1.50;;
1747;SDS011;871;47.034;15.394;2024-02-16T05:46:16;39.65;;;1.33;;
1747;SDS011;871;47.034;15.394;2024-02-16T05:48:45;39.92;;;1.30;;
1747;SDS011;871;47.034;15.394;2024-02-16T05:51:11;39.95;;;1.50;;
1747;SDS011;871;47.034;15.394;2024-02-16T05:53:38;39.95;;;1.40;;
1747;SDS011;871;47.034;15.394;2024-02-16T05:56:05;41.08;;;2.83;;
1747;SDS011;871;47.034;15.394;2024-02-16T05:58:31;39.75;;;1.33;;
1747;SDS011;871;47.034;15.394;2024-02-16T06:00:58;39.88;;;1.30;;
1747;SDS011;871;47.034;15.394;2024-02-16T06:03:24;40.10;;;1.30;;
1747;SDS011;871;47.034;15.394;2024-02-16T06:05:52;40.10;;;1.40;;
1747;SDS011;871;47.034;15.394;2024-02-16T06:08:18;40.00;;;1.75;;
1747;SDS011;871;47.034;15.394;2024-02-16T06:10:44;40.05;;;1.30;;
1747;SDS011;871;47.034;15.394;2024-02-16T06:13:16;39.95;;;1.40;;
1747;SDS011;871;47.034;15.394;2024-02-16T06:15:42;40.20;;;1.52;;
1747;SDS011;871;47.034;15.394;2024-02-16T06:18:08;41.85;;;2.72;;
1747;SDS011;871;47.034;15.394;2024-02-16T06:20:35;40.33;;;1.70;;
1747;SDS011;871;47.034;15.394;2024-02-16T06:23:01;39.97;;;1.73;;
1747;SDS011;871;47.034;15.394;2024-02-16T06:25:27;39.72;;;1.48;;
1747;SDS011;871;47.034;15.394;2024-02-16T06:27:53;43.30;;;1.95;;
1747;SDS011;871;47.034;15.394;2024-02-16T06:30:19;39.70;;;1.40;;
1747;SDS011;871;47.034;15.394;2024-02-16T06:32:45;41.40;;;2.20;;
1747;SDS011;871;47.034;15.394;2024-02-16T06:35:12;39.60;;;1.40;;
1747;SDS011;871;47.034;15.394;2024-02-16T06:37:39;39.60;;;1.40;;
1747;SDS011;871;47.034;15.394;2024-02-16T06:40:08;39.60;;;1.40;;
1747;SDS011;871;47.034;15.394;2024-02-16T06:42:35;39.72;;;1.30;;
1747;SDS011;871;47.034;15.394;2024-02-16T06:45:01;39.65;;;1.40;;
1747;SDS011;871;47.034;15.394;2024-02-16T06:47:29;39.60;;;1.20;;
1747;SDS011;871;47.034;15.394;2024-02-16T06:49:55;39.63;;;1.35;;
1747;SDS011;871;47.034;15.394;2024-02-16T06:52:21;41.45;;;3.95;;
1747;SDS011;871;47.034;15.394;2024-02-16T06:54:47;39.95;;;1.85;;
1747;SDS011;871;47.034;15.394;2024-02-16T06:57:15;39.42;;;1.27;;
1747;SDS011;871;47.034;15.394;2024-02-16T06:59:41;39.30;;;1.20;;
1747;SDS011;871;47.034;15.394;2024-02-16T07:02:07;39.40;;;1.40;;
1747;SDS011;871;47.034;15.394;2024-02-16T07:04:34;39.75;;;1.67;;
1747;SDS011;871;47.034;15.394;2024-02-16T07:07:00;39.63;;;1.45;;
1747;SDS011;871;47.034;15.394;2024-02-16T07:09:26;39.78;;;1.83;;
1747;SDS011;871;47.034;15.394;2024-02-16T07:11:52;39.55;;;1.50;;
1747;SDS011;871;47.034;15.394;2024-02-16T07:14:19;39.58;;;1.70;;
1747;SDS011;871;47.034;15.394;2024-02-16T07:16:45;39.17;;;1.30;;
1747;SDS011;871;47.034;15.394;2024-02-16T07:19:11;39.97;;;2.17;;
1747;SDS011;871;47.034;15.394;2024-02-16T07:21:37;39.90;;;1.85;;
1747;SDS011;871;47.034;15.394;2024-02-16T07:24:03;39.50;;;1.25;;
1747;SDS011;871;47.034;15.394;2024-02-16T07:26:29;40.00;;;1.30;;
1747;SDS011;871;47.034;15.394;2024-02-16T07:28:55;40.35;;;1.30;;
1747;SDS011;871;47.034;15.394;2024-02-16T07:31:22;40.20;;;1.40;;
1747;SDS011;871;47.034;15.394;2024-02-16T07:33:48;40.00;;;1.83;;
1747;SDS011;871;47.034;15.394;2024-02-16T07:36:14;39.78;;;1.30;;
1747;SDS011;871;47.034;15.394;2024-02-16T07:38:42;40.20;;;1.30;;
1747;SDS011;871;47.034;15.394;2024-02-16T07:41:09;40.70;;;2.03;;
1747;SDS011;871;47.034;15.394;2024-02-16T07:43:35;40.63;;;1.30;;
1747;SDS011;871;47.034;15.394;2024-02-16T07:46:01;40.95;;;1.40;;
1747;SDS011;871;47.034;15.394;2024-02-16T07:48:28;41.13;;;1.20;;
1747;SDS011;871;47.034;15.394;2024-02-16T07:50:54;41.15;;;1.50;;
1747;SDS011;871;47.034;15.394;2024-02-16T07:53:23;42.45;;;2.00;;
1747;SDS011;871;47.034;15.394;2024-02-16T07:55:49;44.63;;;1.83;;
1747;SDS011;871;47.034;15.394;2024-02-16T07:58:15;40.90;;;1.30;;
1747;SDS011;871;47.034;15.394;2024-02-16T08:00:41;41.00;;;1.20;;
1747;SDS011;871;47.034;15.394;2024-02-16T08:03:08;41.37;;;1.50;;
1747;SDS011;871;47.034;15.394;2024-02-16T08:05:34;41.73;;;1.50;;
1747;SDS011;871;47.034;15.394;2024-02-16T08:08:00;41.83;;;1.40;;
1747;SDS011;871;47.034;15.394;2024-02-16T08:10:27;41.90;;;1.40;;
1747;SDS011;871;47.034;15.394;2024-02-16T08:12:53;41.70;;;1.20;;
1747;SDS011;871;47.034;15.394;2024-02-16T08:15:19;41.60;;;1.30;;
1747;SDS011;871;47.034;15.394;2024-02-16T08:17:50;41.60;;;1.40;;
1747;SDS011;871;47.034;15.394;2024-02-16T08:20:16;41.90;;;1.30;;
1747;SDS011;871;47.034;15.394;2024-02-16T08:22:43;41.90;;;1.40;;
1747;SDS011;871;47.034;15.394;2024-02-16T08:25:09;41.87;;;1.20;;
1747;SDS011;871;47.034;15.394;2024-02-16T08:27:35;42.17;;;1.90;;
1747;SDS011;871;47.034;15.394;2024-02-16T08:30:03;41.90;;;1.47;;
1747;SDS011;871;47.034;15.394;2024-02-16T08:32:29;41.73;;;1.40;;
1747;SDS011;871;47.034;15.394;2024-02-16T08:34:55;41.80;;;1.20;;
1747;SDS011;871;47.034;15.394;2024-02-16T08:37:23;41.87;;;1.20;;
1747;SDS011;871;47.034;15.394;2024-02-16T08:39:49;41.77;;;1.20;;
1747;SDS011;871;47.034;15.394;2024-02-16T08:42:15;41.97;;;1.60;;
1747;SDS011;871;47.034;15.394;2024-02-16T08:44:41;41.63;;;1.50;;
1747;SDS011;871;47.034;15.394;2024-02-16T08:47:08;41.63;;;1.10;;
1747;SDS011;871;47.034;15.394;2024-02-16T08:49:34;41.67;;;1.40;;
1747;SDS011;871;47.034;15.394;2024-02-16T08:52:00;41.63;;;1.30;;
1747;SDS011;871;47.034;15.394;2024-02-16T08:54:26;42.80;;;2.90;;
1747;SDS011;871;47.034;15.394;2024-02-16T08:56:55;42.17;;;1.40;;
1747;SDS011;871;47.034;15.394;2024-02-16T08:59:21;41.50;;;1.23;;
1747;SDS011;871;47.034;15.394;2024-02-16T09:01:47;41.97;;;2.00;;
1747;SDS011;871;47.034;15.394;2024-02-16T09:04:13;41.83;;;1.40;;
1747;SDS011;871;47.034;15.394;2024-02-16T09:06:40;41.43;;;1.10;;
1747;SDS011;871;47.034;15.394;2024-02-16T09:09:07;41.50;;;1.67;;
1747;SDS011;871;47.034;15.394;2024-02-16T09:11:33;41.53;;;1.30;;
1747;SDS011;871;47.034;15.394;2024-02-16T09:13:59;41.50;;;1.53;;
1747;SDS011;871;47.034;15.394;2024-02-16T09:16:25;41.77;;;1.43;;
1747;SDS011;871;47.034;15.394;2024-02-16T09:18:51;41.57;;;1.33;;
1747;SDS011;871;47.034;15.394;2024-02-16T09:21:17;41.47;;;1.50;;
1747;SDS011;871;47.034;15.394;2024-02-16T09:23:44;41.57;;;1.50;;
1747;SDS011;871;47.034;15.394;2024-02-16T09:26:11;41.77;;;1.30;;
1747;SDS011;871;47.034;15.394;2024-02-16T09:28:40;41.00;;;1.47;;
1747;SDS011;871;47.034;15.394;2024-02-16T09:31:06;41.50;;;1.30;;
1747;SDS011;871;47.034;15.394;2024-02-16T09:33:33;41.77;;;1.33;;
1747;SDS011;871;47.034;15.394;2024-02-16T09:36:00;41.77;;;1.40;;
1747;SDS011;871;47.034;15.394;2024-02-16T09:38:26;41.50;;;1.43;;
1747;SDS011;871;47.034;15.394;2024-02-16T09:40:52;41.67;;;1.10;;
1747;SDS011;871;47.034;15.394;2024-02-16T09:43:28;42.37;;;1.40;;
1747;SDS011;871;47.034;15.394;2024-02-16T09:45:55;41.60;;;1.43;;
1747;SDS011;871;47.034;15.394;2024-02-16T09:48:21;42.40;;;2.00;;
1747;SDS011;871;47.034;15.394;2024-02-16T09:50:50;41.57;;;1.47;;
1747;SDS011;871;47.034;15.394;2024-02-16T09:53:17;43.33;;;2.43;;
1747;SDS011;871;47.034;15.394;2024-02-16T09:55:44;41.63;;;1.20;;
1747;SDS011;871;47.034;15.394;2024-02-16T09:58:11;41.37;;;1.10;;
1747;SDS011;871;47.034;15.394;2024-02-16T10:00:42;41.63;;;1.80;;
1747;SDS011;871;47.034;15.394;2024-02-16T10:03:08;42.03;;;1.77;;
1747;SDS011;871;47.034;15.394;2024-02-16T10:05:35;41.63;;;1.50;;
1747;SDS011;871;47.034;15.394;2024-02-16T10:08:10;41.57;;;1.40;;
1747;SDS011;871;47.034;15.394;2024-02-16T10:10:37;43.00;;;1.80;;
1747;SDS011;871;47.034;15.394;2024-02-16T10:13:03;41.53;;;1.67;;
1747;SDS011;871;47.034;15.394;2024-02-16T10:15:30;41.50;;;1.37;;
1747;SDS011;871;47.034;15.394;2024-02-16T10:20:25;41.77;;;1.70;;
1747;SDS011;871;47.034;15.394;2024-02-16T10:23:10;41.20;;;1.10;;
1747;SDS011;871;47.034;15.394;2024-02-16T10:25:37;41.37;;;1.20;;
1747;SDS011;871;47.034;15.394;2024-02-16T10:28:04;41.27;;;1.23;;
1747;SDS011;871;47.034;15.394;2024-02-16T10:30:33;42.80;;;1.70;;
1747;SDS011;871;47.034;15.394;2024-02-16T10:32:59;41.70;;;1.23;;
1747;SDS011;871;47.034;15.394;2024-02-16T10:35:26;42.03;;;1.97;;
1747;SDS011;871;47.034;15.394;2024-02-16T10:37:54;41.40;;;1.40;;
1747;SDS011;871;47.034;15.394;2024-02-16T10:40:22;42.30;;;2.27;;
1747;SDS011;871;47.034;15.394;2024-02-16T10:42:51;41.70;;;1.50;;
1747;SDS011;871;47.034;15.394;2024-02-16T10:45:17;41.53;;;1.57;;
1747;SDS011;871;47.034;15.394;2024-02-16T10:47:44;41.27;;;1.30;;
1747;SDS011;871;47.034;15.394;2024-02-16T10:50:10;43.10;;;2.43;;
1747;SDS011;871;47.034;15.394;2024-02-16T10:52:38;41.67;;;1.40;;
1747;SDS011;871;47.034;15.394;2024-02-16T10:55:04;43.90;;;2.90;;
1747;SDS011;871;47.034;15.394;2024-02-16T10:57:31;41.40;;;1.27;;
1747;SDS011;871;47.034;15.394;2024-02-16T10:59:58;41.33;;;1.40;;
1747;SDS011;871;47.034;15.394;2024-02-16T11:02:24;41.37;;;1.10;;
1747;SDS011;871;47.034;15.394;2024-02-16T11:04:52;41.40;;;1.50;;
1747;SDS011;871;47.034;15.394;2024-02-16T11:07:18;41.10;;;1.30;;
1747;SDS011;871;47.034;15.394;2024-02-16T11:09:45;41.57;;;1.30;;
1747;SDS011;871;47.034;15.394;2024-02-16T11:12:13;41.43;;;1.47;;
1747;SDS011;871;47.034;15.394;2024-02-16T11:14:43;41.77;;;1.63;;
1747;SDS011;871;47.034;15.394;2024-02-16T11:17:20;41.70;;;1.97;;
1747;SDS011;871;47.034;15.394;2024-02-16T11:19:46;42.17;;;2.53;;
1747;SDS011;871;47.034;15.394;2024-02-16T11:22:19;41.87;;;1.50;;
1747;SDS011;871;47.034;15.394;2024-02-16T11:24:45;41.77;;;1.50;;
1747;SDS011;871;47.034;15.394;2024-02-16T11:27:12;41.40;;;1.43;;
1747;SDS011;871;47.034;15.394;2024-02-16T11:29:40;41.17;;;1.20;;
1747;SDS011;871;47.034;15.394;2024-02-16T11:32:06;41.77;;;1.97;;
1747;SDS011;871;47.034;15.394;2024-02-16T11:34:33;41.40;;;1.30;;
1747;SDS011;871;47.034;15.394;2024-02-16T11:37:00;41.37;;;1.23;;
1747;SDS011;871;47.034;15.394;2024-02-16T11:39:27;41.10;;;1.10;;
1747;SDS011;871;47.034;15.394;2024-02-16T11:44:27;41.40;;;1.30;;
1747;SDS011;871;47.034;15.394;2024-02-16T11:46:54;41.63;;;1.33;;
1747;SDS011;871;47.034;15.394;2024-02-16T11:49:20;41.30;;;1.17;;
1747;SDS011;871;47.034;15.394;2024-02-16T11:51:47;41.30;;;1.50;;
1747;SDS011;871;47.034;15.394;2024-02-16T11:54:13;43.07;;;3.50;;
1747;SDS011;871;47.034;15.394;2024-02-16T11:56:42;41.57;;;1.43;;
1747;SDS011;871;47.034;15.394;2024-02-16T11:59:11;41.47;;;1.70;;
1747;SDS011;871;47.034;15.394;2024-02-16T12:01:47;42.53;;;2.00;;
1747;SDS011;871;47.034;15.394;2024-02-16T12:04:19;41.50;;;1.63;;
1747;SDS011;871;47.034;15.394;2024-02-16T12:06:45;41.47;;;1.33;;
1747;SDS011;871;47.034;15.394;2024-02-16T12:09:15;41.47;;;1.23;;
1747;SDS011;871;47.034;15.394;2024-02-16T12:11:41;41.80;;;1.87;;
1747;SDS011;871;47.034;15.394;2024-02-16T12:14:07;42.10;;;1.30;;
1747;SDS011;871;47.034;15.394;2024-02-16T12:16:34;41.27;;;0.97;;
1747;SDS011;871;47.034;15.394;2024-02-16T12:19:04;41.50;;;1.50;;
1747;SDS011;871;47.034;15.394;2024-02-16T12:21:30;40.80;;;1.07;;
1747;SDS011;871;47.034;15.394;2024-02-16T12:23:56;45.70;;;2.10;;
1747;SDS011;871;47.034;15.394;2024-02-16T12:26:22;41.50;;;1.70;;
1747;SDS011;871;47.034;15.394;2024-02-16T12:28:49;41.53;;;1.50;;
1747;SDS011;871;47.034;15.394;2024-02-16T12:31:19;42.20;;;1.40;;
1747;SDS011;871;47.034;15.394;2024-02-16T12:33:45;41.40;;;1.70;;
1747;SDS011;871;47.034;15.394;2024-02-16T12:36:11;41.60;;;1.87;;
1747;SDS011;871;47.034;15.394;2024-02-16T12:38:37;42.20;;;1.70;;
1747;SDS011;871;47.034;15.394;2024-02-16T12:41:04;41.27;;;1.30;;
1747;SDS011;871;47.034;15.394;2024-02-16T12:43:30;41.47;;;1.37;;
1747;SDS011;871;47.034;15.394;2024-02-16T12:45:56;42.20;;;1.60;;
1747;SDS011;871;47.034;15.394;2024-02-16T12:48:22;41.20;;;1.40;;
1747;SDS011;871;47.034;15.394;2024-02-16T12:50:48;41.37;;;1.20;;
1747;SDS011;871;47.034;15.394;2024-02-16T12:53:16;41.27;;;1.10;;
1747;SDS011;871;47.034;15.394;2024-02-16T12:55:42;41.50;;;1.40;;
1747;SDS011;871;47.034;15.394;2024-02-16T12:58:09;42.30;;;1.70;;
1747;SDS011;871;47.034;15.394;2024-02-16T13:00:35;41.50;;;1.60;;
1747;SDS011;871;47.034;15.394;2024-02-16T13:03:01;42.57;;;1.97;;
1747;SDS011;871;47.034;15.394;2024-02-16T13:05:27;41.23;;;1.53;;
1747;SDS011;871;47.034;15.394;2024-02-16T13:07:55;43.47;;;2.33;;
1747;SDS011;871;47.034;15.394;2024-02-16T13:10:21;41.30;;;1.03;;
1747;SDS011;871;47.034;15.394;2024-02-16T13:12:47;41.27;;;1.40;;
1747;SDS011;871;47.034;15.394;2024-02-16T13:15:13;41.07;;;1.23;;
1747;SDS011;871;47.034;15.394;2024-02-16T13:17:39;41.17;;;1.23;;
1747;SDS011;871;47.034;15.394;2024-02-16T13:20:06;41.27;;;1.30;;
1747;SDS011;871;47.034;15.394;2024-02-16T13:22:34;43.07;;;1.80;;
1747;SDS011;871;47.034;15.394;2024-02-16T13:25:00;41.57;;;1.40;;
1747;SDS011;871;47.034;15.394;2024-02-16T13:27:26;41.33;;;1.47;;
1747;SDS011;871;47.034;15.394;2024-02-16T13:29:52;41.53;;;1.33;;
1747;SDS011;871;47.034;15.394;2024-02-16T13:32:19;43.20;;;1.50;;
1747;SDS011;871;47.034;15.394;2024-02-16T13:34:45;41.83;;;1.43;;
1747;SDS011;871;47.034;15.394;2024-02-16T13:37:11;41.63;;;1.50;;
1747;SDS011;871;47.034;15.394;2024-02-16T13:39:37;41.83;;;2.20;;
1747;SDS011;871;47.034;15.394;2024-02-16T13:42:03;41.40;;;1.77;;
1747;SDS011;871;47.034;15.394;2024-02-16T13:44:29;41.53;;;1.50;;
1747;SDS011;871;47.034;15.394;2024-02-16T13:46:56;44.90;;;1.70;;
1747;SDS011;871;47.034;15.394;2024-02-16T13:49:22;41.33;;;1.57;;
1747;SDS011;871;47.034;15.394;2024-02-16T13:51:48;41.20;;;1.27;;
1747;SDS011;871;47.034;15.394;2024-02-16T13:54:14;41.67;;;2.03;;
1747;SDS011;871;47.034;15.394;2024-02-16T13:56:40;43.17;;;2.43;;
1747;SDS011;871;47.034;15.394;2024-02-16T13:59:06;42.50;;;1.80;;
1747;SDS011;871;47.034;15.394;2024-02-16T14:01:33;41.83;;;1.70;;
1747;SDS011;871;47.034;15.394;2024-02-16T14:03:59;42.10;;;1.70;;
1747;SDS011;871;47.034;15.394;2024-02-16T14:06:26;41.67;;;1.73;;
1747;SDS011;871;47.034;15.394;2024-02-16T14:08:52;42.17;;;2.17;;
1747;SDS011;871;47.034;15.394;2024-02-16T14:11:18;41.57;;;1.33;;
1747;SDS011;871;47.034;15.394;2024-02-16T14:13:44;42.23;;;1.50;;
1747;SDS011;871;47.034;15.394;2024-02-16T14:16:10;41.60;;;1.40;;
1747;SDS011;871;47.034;15.394;2024-02-16T14:18:37;46.20;;;1.90;;
1747;SDS011;871;47.034;15.394;2024-02-16T14:21:03;41.43;;;1.13;;
1747;SDS011;871;47.034;15.394;2024-02-16T14:23:32;41.63;;;1.60;;
1747;SDS011;871;47.034;15.394;2024-02-16T14:25:58;41.10;;;1.20;;
1747;SDS011;871;47.034;15.394;2024-02-16T14:28:24;41.93;;;1.57;;
1747;SDS011;871;47.034;15.394;2024-02-16T14:30:50;43.90;;;1.87;;
1747;SDS011;871;47.034;15.394;2024-02-16T14:33:16;41.57;;;1.60;;
1747;SDS011;871;47.034;15.394;2024-02-16T14:35:43;41.87;;;1.77;;
1747;SDS011;871;47.034;15.394;2024-02-16T14:38:09;41.67;;;1.50;;
1747;SDS011;871;47.034;15.394;2024-02-16T14:40:35;41.27;;;1.17;;
1747;SDS011;871;47.034;15.394;2024-02-16T14:43:01;42.97;;;2.73;;
1747;SDS011;871;47.034;15.394;2024-02-16T14:45:28;41.43;;;1.10;;
1747;SDS011;871;47.034;15.394;2024-02-16T14:47:54;41.57;;;1.53;;
1747;SDS011;871;47.034;15.394;2024-02-16T14:50:20;41.47;;;1.20;;
1747;SDS011;871;47.034;15.394;2024-02-16T14:52:46;41.20;;;1.20;;
1747;SDS011;871;47.034;15.394;2024-02-16T14:55:12;41.57;;;1.27;;
1747;SDS011;871;47.034;15.394;2024-02-16T14:57:44;41.47;;;1.37;;
1747;SDS011;871;47.034;15.394;2024-02-16T15:00:11;42.00;;;1.90;;
1747;SDS011;871;47.034;15.394;2024-02-16T15:02:37;41.57;;;1.33;;